This is the latest recevied weather packets stored in our database for station/object Krozingen. If no packets are shown the sender has not sent any weather packets the latest 10 day(s).
| Time | Temp. | Humidity | Pressure | Rain* | Wind** | Luminosity | Snow |
|---|---|---|---|---|---|---|---|
| 1777534332 | 11.67° C | 50% | 1023.6 hPa | 0 mm | - | - | - |
| 1777532532 | 11.11° C | 52% | 1023.5 hPa | 0 mm | - | - | - |
| 1777530736 | 11.67° C | 53% | 1023.4 hPa | 0 mm | - | - | - |
| 1777528931 | 8.89° C | 61% | 1023.4 hPa | 0 mm | - | - | - |
| 1777527131 | 8.33° C | 63% | 1023.1 hPa | 0 mm | - | - | - |
| 1777525331 | 6.11° C | 70% | 1022.7 hPa | 0 mm | - | - | - |
| 1777523532 | 6.11° C | 69% | 1022.6 hPa | 0 mm | - | - | - |
| 1777521732 | 6.11° C | 68% | 1022.1 hPa | 0 mm | - | - | - |
| 1777519931 | 6.67° C | 66% | 1022.1 hPa | 0 mm | - | - | - |
| 1777518132 | 7.22° C | 64% | 1021.8 hPa | 0 mm | - | - | - |
| 1777514532 | 8.33° C | 59% | 1021.4 hPa | 0 mm | - | - | - |
| 1777512731 | 10.56° C | 51% | 1021.1 hPa | 0 mm | - | - | - |
| 1777510932 | 11.67° C | 45% | 1020.9 hPa | 0 mm | - | - | - |
| 1777509129 | 12.78° C | 41% | 1020.8 hPa | 0 mm | - | - | - |
| 1777507330 | 13.33° C | 38% | 1020.8 hPa | 0 mm | - | - | - |
| 1777505529 | 13.89° C | 37% | 1020.8 hPa | 0 mm | - | - | - |
| 1777503729 | 14.44° C | 38% | 1020.8 hPa | 0 mm | - | - | - |
| 1777501931 | 14.44° C | 38% | 1020.9 hPa | 0 mm | - | - | - |
| 1777500129 | 14.44° C | 40% | 1020.8 hPa | 0 mm | - | - | - |
| 1777498329 | 14.44° C | 44% | 1020.7 hPa | 0 mm | - | - | - |
| 1777496530 | 15° C | 44% | 1020.5 hPa | 0 mm | - | - | - |
| 1777494730 | 16.11° C | 43% | 1020.3 hPa | 0 mm | - | - | - |
| 1777492929 | 16.67° C | 42% | 1019.9 hPa | 0 mm | - | - | - |
| 1777491129 | 18.33° C | 37% | 1019.4 hPa | 0 mm | - | - | - |
| 1777489330 | 18.89° C | 34% | 1018.9 hPa | 0 mm | - | - | - |
* Rain since midnight (hover to see other rain measurements)
** Current wind speed in m/s (hover to see current wind gust speed)